메인 페이지
METAR-TAF:

METAR-TAF

공항 :

비야에르모사, 멕시코

위도: 18-00N, 경도: 092-49W, 고도: 13m

현재 날씨관측

예보는 1 시간 1분 전, 10:06시(UTC)에 발표되었습니다.
무풍
온도 27°C
습도 100%
기압 1008 hPa
시정: 6.4km
고도 1500ft 상공 구름 보통

METAR: MMVA 251006Z RTD 00000KT 4SM SCT015 27/27 A2976 RMK 8/600 BR ARND STN RTS

시각: 06:07 (11:07 UTC)

예보

예보는 6 시간 1분 전, 05:06시(UTC)에 발표되었습니다.
예보 대상 시간: 25일 06시부터 26일 06시까지 (UTC)
kt
시정: 4.8km
맑음
연무
일시적
25일 10시부터 25일 14시까지 (UTC)
시정: 3.2km
고도 1500ft 상공 구름 보통
박무, 연무
25일 1500시부터 (UTC)
북동5kt
시정: 4.8km
고도 20000ft 상공 구름 보통
연무
25일 1800시부터 (UTC)
북동12kt
시정: 6.4km
맑음
연무
전환 중
26일 01시부터 26일 03시까지 (UTC)
kt
시정: 3.2km
연무,

TAF: MMVA 250506Z 2506/2606 00000KT 3SM HZ SKC TEMPO 2510/2514 2SM BR HZ SCT015 FM251500 05005KT 3SM HZ SCT200 FM251800 05012KT 4SM HZ SKC BECMG 2601/2603 00000KT 2SM HZ

4,000개 이상의 공항 관측 자료 및 예보 (METAR 및 TAF 보고).

지도상에서 검색 가능한 기상관측소가 노란 점과 빨간 점으로 표시되어 있습니다.

기상관측소 명을 보려면 표시 위로 마우스를 이동하세요.

날씨 관측과 예보를 보려면 클릭하세요.

지도 변경 : 확대하려면 엑스 표시가 있는 녹색 버튼, 축소하려면 빼기 표시가 있는 녹색 버튼, 다음 페이지의 지도를 보려면 녹색 화살표를 클릭하세요.


METAR-TAF: